RYR29AV LMML-LIRP
Flight info
| Callsign | RYR29AV |
|---|---|
| Flight time | 1h 21m |
| Altitude | 38000 |
| Route | GZO M622 SOPIR DCT MABOX DCT ADEXI DCT BETOT DCT POKAV DCT TINTO DCT VELAD L12 ELB |
| Aircraft | B738/M-SDE2E3FGHIRWXY/LB1 |
Departure
| Time | 2026-04-29 06:38 |
|---|---|
| Airport | Malta International Airport (LMML) |
Arrival
| Time | 2026-04-29 07:59 |
|---|---|
| Airport | Pisa International Airport (LIRP) |
| Time | Latitude | Longitude | Altitude | Speed | Heading |
|---|---|---|---|---|---|
| 2026-04-29 06:18 | 35.84761 | 14.49573 | 258 ft | 0 kts | 359° |
| 2026-04-29 06:32 | 35.84762 | 14.49573 | 258 ft | 1 kts | 355° |
| 2026-04-29 06:33 | 35.84764 | 14.49567 | 258 ft | 1 kts | 303° |
| 2026-04-29 06:33 | 35.84763 | 14.49551 | 258 ft | 3 kts | 248° |
| 2026-04-29 06:33 | 35.84754 | 14.49515 | 258 ft | 6 kts | 263° |
| 2026-04-29 06:33 | 35.84775 | 14.49464 | 258 ft | 8 kts | 313° |
| 2026-04-29 06:34 | 35.84824 | 14.49403 | 258 ft | 12 kts | 314° |
| 2026-04-29 06:34 | 35.84886 | 14.49325 | 258 ft | 13 kts | 314° |
| 2026-04-29 06:34 | 35.84931 | 14.49230 | 257 ft | 13 kts | 277° |
| 2026-04-29 06:34 | 35.84902 | 14.49129 | 258 ft | 13 kts | 264° |
| 2026-04-29 06:35 | 35.84944 | 14.49039 | 257 ft | 12 kts | 307° |
| 2026-04-29 06:35 | 35.84980 | 14.48945 | 258 ft | 12 kts | 288° |
| 2026-04-29 06:35 | 35.85002 | 14.48847 | 258 ft | 12 kts | 285° |
| 2026-04-29 06:35 | 35.85024 | 14.48752 | 261 ft | 11 kts | 285° |
| 2026-04-29 06:36 | 35.85053 | 14.48663 | 264 ft | 11 kts | 297° |
| 2026-04-29 06:36 | 35.85061 | 14.48621 | 266 ft | 5 kts | 234° |
| 2026-04-29 06:36 | 35.85031 | 14.48636 | 264 ft | 6 kts | 135° |
| 2026-04-29 06:36 | 35.84995 | 14.48681 | 262 ft | 9 kts | 135° |
| 2026-04-29 06:37 | 35.84907 | 14.48792 | 258 ft | 45 kts | 135° |
| 2026-04-29 06:37 | 35.84504 | 14.49289 | 258 ft | 117 kts | 135° |
| 2026-04-29 06:37 | 35.83773 | 14.50155 | 364 ft | 165 kts | 139° |
| 2026-04-29 06:37 | 35.82812 | 14.51066 | 815 ft | 189 kts | 159° |
| 2026-04-29 06:38 | 35.81526 | 14.51082 | 1625 ft | 187 kts | 204° |
| 2026-04-29 06:38 | 35.80683 | 14.50034 | 2787 ft | 168 kts | 241° |
| 2026-04-29 06:38 | 35.80103 | 14.48763 | 3571 ft | 174 kts | 239° |
| 2026-04-29 06:38 | 35.79447 | 14.47377 | 3973 ft | 203 kts | 239° |
| 2026-04-29 06:39 | 35.78682 | 14.45792 | 4204 ft | 228 kts | 239° |
| 2026-04-29 06:39 | 35.77828 | 14.44048 | 4563 ft | 247 kts | 238° |
| 2026-04-29 06:39 | 35.76894 | 14.42159 | 4926 ft | 266 kts | 238° |
| 2026-04-29 06:39 | 35.75997 | 14.40138 | 5690 ft | 272 kts | 250° |
| 2026-04-29 06:40 | 35.75702 | 14.37841 | 6640 ft | 273 kts | 273° |
| 2026-04-29 06:40 | 35.76146 | 14.35568 | 7508 ft | 277 kts | 295° |
| 2026-04-29 06:40 | 35.77304 | 14.33659 | 8334 ft | 282 kts | 319° |
| 2026-04-29 06:40 | 35.78990 | 14.32407 | 9154 ft | 286 kts | 336° |
| 2026-04-29 06:41 | 35.80820 | 14.31489 | 9958 ft | 290 kts | 338° |
| 2026-04-29 06:41 | 35.82738 | 14.30588 | 10517 ft | 305 kts | 339° |
| 2026-04-29 06:41 | 35.84808 | 14.29620 | 10710 ft | 330 kts | 339° |
| 2026-04-29 06:41 | 35.87009 | 14.28581 | 11197 ft | 343 kts | 338° |
| 2026-04-29 06:42 | 35.89257 | 14.27508 | 11926 ft | 348 kts | 338° |
| 2026-04-29 06:42 | 35.91523 | 14.26418 | 12712 ft | 351 kts | 338° |
| 2026-04-29 06:42 | 35.93809 | 14.25312 | 13463 ft | 354 kts | 338° |
| 2026-04-29 06:42 | 35.96116 | 14.24192 | 14184 ft | 358 kts | 338° |
| 2026-04-29 06:43 | 35.98450 | 14.23057 | 14890 ft | 362 kts | 338° |
| 2026-04-29 06:43 | 36.00809 | 14.21910 | 15587 ft | 366 kts | 338° |
| 2026-04-29 06:43 | 36.03192 | 14.20743 | 16263 ft | 370 kts | 336° |
| 2026-04-29 06:43 | 36.05446 | 14.19204 | 16909 ft | 373 kts | 325° |
| 2026-04-29 06:44 | 36.07552 | 14.17366 | 17558 ft | 376 kts | 323° |
| 2026-04-29 06:44 | 36.09666 | 14.15436 | 18183 ft | 380 kts | 323° |
| 2026-04-29 06:44 | 36.11828 | 14.13452 | 18798 ft | 384 kts | 323° |
| 2026-04-29 06:44 | 36.13959 | 14.11514 | 19381 ft | 387 kts | 323° |
| 2026-04-29 06:45 | 36.16176 | 14.09517 | 19978 ft | 391 kts | 323° |
| 2026-04-29 06:45 | 36.18361 | 14.07565 | 20536 ft | 394 kts | 324° |
| 2026-04-29 06:45 | 36.20597 | 14.05577 | 21088 ft | 397 kts | 324° |
| 2026-04-29 06:45 | 36.22854 | 14.03574 | 21624 ft | 401 kts | 324° |
| 2026-04-29 06:46 | 36.25133 | 14.01552 | 22136 ft | 404 kts | 324° |
| 2026-04-29 06:46 | 36.27425 | 13.99519 | 22632 ft | 407 kts | 324° |
| 2026-04-29 06:46 | 36.29738 | 13.97465 | 23119 ft | 410 kts | 324° |
| 2026-04-29 06:46 | 36.32072 | 13.95391 | 23593 ft | 413 kts | 324° |
| 2026-04-29 06:47 | 36.34415 | 13.93307 | 24056 ft | 416 kts | 324° |
| 2026-04-29 06:47 | 36.36778 | 13.91203 | 24506 ft | 419 kts | 324° |
| 2026-04-29 06:47 | 36.39162 | 13.89080 | 24946 ft | 422 kts | 324° |
| 2026-04-29 06:47 | 36.41557 | 13.86943 | 25371 ft | 425 kts | 324° |
| 2026-04-29 06:48 | 36.43933 | 13.84823 | 25780 ft | 428 kts | 324° |
| 2026-04-29 06:48 | 36.46363 | 13.82654 | 26183 ft | 430 kts | 324° |
| 2026-04-29 06:48 | 36.48801 | 13.80475 | 26564 ft | 433 kts | 324° |
| 2026-04-29 06:48 | 36.51254 | 13.78281 | 26936 ft | 435 kts | 324° |
| 2026-04-29 06:49 | 36.53722 | 13.76069 | 27302 ft | 438 kts | 324° |
| 2026-04-29 06:49 | 36.56205 | 13.73839 | 27659 ft | 440 kts | 323° |
| 2026-04-29 06:49 | 36.58694 | 13.71602 | 28000 ft | 443 kts | 323° |
| 2026-04-29 06:49 | 36.61201 | 13.69346 | 28338 ft | 445 kts | 323° |
| 2026-04-29 06:50 | 36.63713 | 13.67084 | 28665 ft | 447 kts | 323° |
| 2026-04-29 06:50 | 36.66243 | 13.64805 | 28983 ft | 450 kts | 323° |
| 2026-04-29 06:50 | 36.68782 | 13.62515 | 29291 ft | 452 kts | 323° |
| 2026-04-29 06:50 | 36.71335 | 13.60212 | 29591 ft | 454 kts | 323° |
| 2026-04-29 06:51 | 36.73898 | 13.57897 | 29936 ft | 455 kts | 323° |
| 2026-04-29 06:51 | 36.76456 | 13.55584 | 30382 ft | 453 kts | 323° |
| 2026-04-29 06:51 | 36.78977 | 13.53304 | 30816 ft | 451 kts | 323° |
| 2026-04-29 06:51 | 36.81510 | 13.51010 | 31200 ft | 450 kts | 323° |
| 2026-04-29 06:52 | 36.84046 | 13.48712 | 31538 ft | 450 kts | 323° |
| 2026-04-29 06:52 | 36.86580 | 13.46414 | 31887 ft | 450 kts | 323° |
| 2026-04-29 06:52 | 36.89111 | 13.44117 | 32257 ft | 449 kts | 323° |
| 2026-04-29 06:52 | 36.91632 | 13.41826 | 32615 ft | 448 kts | 323° |
| 2026-04-29 06:53 | 36.94149 | 13.39538 | 32941 ft | 447 kts | 323° |
| 2026-04-29 06:53 | 36.96671 | 13.37242 | 33261 ft | 447 kts | 323° |
| 2026-04-29 06:53 | 36.99179 | 13.34957 | 33589 ft | 446 kts | 323° |
| 2026-04-29 06:53 | 37.01685 | 13.32673 | 33909 ft | 445 kts | 323° |
| 2026-04-29 06:54 | 37.04190 | 13.30387 | 34209 ft | 445 kts | 323° |
| 2026-04-29 06:54 | 37.06692 | 13.28102 | 34497 ft | 444 kts | 323° |
| 2026-04-29 06:54 | 37.09155 | 13.25851 | 34788 ft | 444 kts | 323° |
| 2026-04-29 06:54 | 37.11644 | 13.23574 | 35068 ft | 443 kts | 323° |
| 2026-04-29 06:55 | 37.14135 | 13.21294 | 35335 ft | 443 kts | 323° |
| 2026-04-29 06:55 | 37.16624 | 13.19015 | 35604 ft | 442 kts | 323° |
| 2026-04-29 06:55 | 37.19107 | 13.16739 | 35867 ft | 442 kts | 323° |
| 2026-04-29 06:55 | 37.21589 | 13.14464 | 36115 ft | 441 kts | 323° |
| 2026-04-29 06:56 | 37.24068 | 13.12189 | 36345 ft | 441 kts | 323° |
| 2026-04-29 06:56 | 37.26546 | 13.09913 | 36545 ft | 441 kts | 323° |
| 2026-04-29 06:56 | 37.29021 | 13.07638 | 36761 ft | 441 kts | 323° |
| 2026-04-29 06:56 | 37.31504 | 13.05354 | 36978 ft | 441 kts | 323° |
| 2026-04-29 06:57 | 37.34022 | 13.03157 | 37162 ft | 441 kts | 329° |
| 2026-04-29 06:57 | 37.36768 | 13.01412 | 37332 ft | 442 kts | 339° |
| 2026-04-29 06:57 | 37.39657 | 13.00101 | 37536 ft | 442 kts | 340° |
| 2026-04-29 06:57 | 37.42527 | 12.98871 | 37723 ft | 442 kts | 341° |
| 2026-04-29 06:58 | 37.45445 | 12.97638 | 37879 ft | 442 kts | 341° |
| 2026-04-29 06:58 | 37.48368 | 12.96398 | 37995 ft | 443 kts | 341° |
| 2026-04-29 06:58 | 37.51304 | 12.95139 | 37990 ft | 447 kts | 341° |
| 2026-04-29 06:59 | 37.57225 | 12.92560 | 38011 ft | 453 kts | 340° |
| 2026-04-29 06:59 | 37.63210 | 12.89923 | 38007 ft | 457 kts | 340° |
| 2026-04-29 07:00 | 37.69244 | 12.87253 | 38008 ft | 461 kts | 340° |
| 2026-04-29 07:00 | 37.75308 | 12.84567 | 37994 ft | 460 kts | 340° |
| 2026-04-29 07:01 | 37.81254 | 12.81929 | 37988 ft | 451 kts | 340° |
| 2026-04-29 07:01 | 37.87161 | 12.79305 | 38005 ft | 450 kts | 340° |
| 2026-04-29 07:02 | 37.92537 | 12.76912 | 38001 ft | 450 kts | 340° |
| 2026-04-29 07:02 | 37.98443 | 12.74279 | 38005 ft | 450 kts | 340° |
| 2026-04-29 07:03 | 38.04357 | 12.71639 | 38001 ft | 451 kts | 340° |
| 2026-04-29 07:03 | 38.10273 | 12.68993 | 38002 ft | 452 kts | 340° |
| 2026-04-29 07:04 | 38.16217 | 12.66329 | 38002 ft | 452 kts | 340° |
| 2026-04-29 07:04 | 38.22162 | 12.63661 | 38002 ft | 453 kts | 340° |
| 2026-04-29 07:05 | 38.28117 | 12.60983 | 38002 ft | 454 kts | 340° |
| 2026-04-29 07:05 | 38.34040 | 12.58316 | 38002 ft | 455 kts | 340° |
| 2026-04-29 07:06 | 38.40020 | 12.55618 | 38002 ft | 455 kts | 340° |
| 2026-04-29 07:06 | 38.46006 | 12.52912 | 38001 ft | 456 kts | 340° |
| 2026-04-29 07:07 | 38.51982 | 12.50207 | 38001 ft | 456 kts | 340° |
| 2026-04-29 07:07 | 38.57961 | 12.47495 | 38001 ft | 456 kts | 340° |
| 2026-04-29 07:08 | 38.63939 | 12.44778 | 38001 ft | 456 kts | 340° |
| 2026-04-29 07:08 | 38.69877 | 12.42076 | 38001 ft | 455 kts | 340° |
| 2026-04-29 07:09 | 38.75847 | 12.39353 | 38001 ft | 455 kts | 340° |
| 2026-04-29 07:09 | 38.81803 | 12.36633 | 38001 ft | 454 kts | 340° |
| 2026-04-29 07:10 | 38.87755 | 12.33909 | 38001 ft | 454 kts | 340° |
| 2026-04-29 07:10 | 38.93696 | 12.31185 | 38001 ft | 453 kts | 340° |
| 2026-04-29 07:11 | 38.99634 | 12.28458 | 38001 ft | 453 kts | 340° |
| 2026-04-29 07:11 | 39.05561 | 12.25731 | 38001 ft | 452 kts | 340° |
| 2026-04-29 07:12 | 39.11492 | 12.22998 | 38002 ft | 452 kts | 340° |
| 2026-04-29 07:12 | 39.17417 | 12.20262 | 38002 ft | 452 kts | 340° |
| 2026-04-29 07:13 | 39.23341 | 12.17522 | 38002 ft | 452 kts | 340° |
| 2026-04-29 07:13 | 39.29269 | 12.14775 | 38002 ft | 453 kts | 340° |
| 2026-04-29 07:14 | 39.35163 | 12.12039 | 38002 ft | 453 kts | 340° |
| 2026-04-29 07:14 | 39.41098 | 12.09279 | 38002 ft | 453 kts | 340° |
| 2026-04-29 07:15 | 39.47034 | 12.06513 | 38002 ft | 453 kts | 340° |
| 2026-04-29 07:15 | 39.52967 | 12.03744 | 38002 ft | 454 kts | 340° |
| 2026-04-29 07:16 | 39.57909 | 12.01433 | 38002 ft | 454 kts | 340° |
| 2026-04-29 07:16 | 39.63856 | 11.98649 | 38002 ft | 454 kts | 340° |
| 2026-04-29 07:17 | 39.69802 | 11.95859 | 38002 ft | 454 kts | 340° |
| 2026-04-29 07:17 | 39.75748 | 11.93064 | 38001 ft | 455 kts | 340° |
| 2026-04-29 07:18 | 39.81695 | 11.90264 | 38001 ft | 455 kts | 340° |
| 2026-04-29 07:18 | 39.87643 | 11.87458 | 38001 ft | 455 kts | 340° |
| 2026-04-29 07:19 | 39.93594 | 11.84645 | 38001 ft | 454 kts | 340° |
| 2026-04-29 07:19 | 39.99532 | 11.81833 | 38001 ft | 454 kts | 340° |
| 2026-04-29 07:20 | 40.05474 | 11.79014 | 38001 ft | 454 kts | 340° |
| 2026-04-29 07:20 | 40.11419 | 11.76189 | 38001 ft | 454 kts | 340° |
| 2026-04-29 07:21 | 40.17354 | 11.73363 | 38001 ft | 454 kts | 340° |
| 2026-04-29 07:21 | 40.23287 | 11.70532 | 38001 ft | 454 kts | 340° |
| 2026-04-29 07:22 | 40.29180 | 11.67715 | 38001 ft | 453 kts | 339° |
| 2026-04-29 07:22 | 40.35112 | 11.64874 | 38001 ft | 453 kts | 339° |
| 2026-04-29 07:23 | 40.41027 | 11.62011 | 38001 ft | 453 kts | 339° |
| 2026-04-29 07:23 | 40.46913 | 11.59015 | 38002 ft | 453 kts | 338° |
| 2026-04-29 07:24 | 40.52797 | 11.55993 | 38002 ft | 453 kts | 338° |
| 2026-04-29 07:24 | 40.58673 | 11.52987 | 38002 ft | 453 kts | 338° |
| 2026-04-29 07:25 | 40.64553 | 11.49981 | 38002 ft | 453 kts | 338° |
| 2026-04-29 07:25 | 40.70433 | 11.46971 | 38002 ft | 453 kts | 338° |
| 2026-04-29 07:26 | 40.76314 | 11.43954 | 38002 ft | 453 kts | 338° |
| 2026-04-29 07:26 | 40.82163 | 11.40947 | 38002 ft | 453 kts | 338° |
| 2026-04-29 07:27 | 40.88043 | 11.37919 | 38002 ft | 454 kts | 338° |
| 2026-04-29 07:27 | 40.93923 | 11.34886 | 38002 ft | 454 kts | 338° |
| 2026-04-29 07:28 | 40.99810 | 11.31841 | 38002 ft | 454 kts | 338° |
| 2026-04-29 07:28 | 41.05697 | 11.28791 | 38002 ft | 454 kts | 338° |
| 2026-04-29 07:29 | 41.11575 | 11.25739 | 38002 ft | 454 kts | 338° |
| 2026-04-29 07:29 | 41.17467 | 11.22675 | 38001 ft | 454 kts | 338° |
| 2026-04-29 07:30 | 41.23307 | 11.19631 | 38001 ft | 454 kts | 338° |
| 2026-04-29 07:30 | 41.29186 | 11.16562 | 38001 ft | 454 kts | 338° |
| 2026-04-29 07:31 | 41.38008 | 11.11943 | 38001 ft | 454 kts | 338° |
| 2026-04-29 07:31 | 41.43891 | 11.08856 | 38001 ft | 454 kts | 338° |
| 2026-04-29 07:32 | 41.49770 | 11.05767 | 38001 ft | 454 kts | 338° |
| 2026-04-29 07:32 | 41.55650 | 11.02678 | 38001 ft | 454 kts | 338° |
| 2026-04-29 07:33 | 41.61483 | 10.99610 | 38001 ft | 454 kts | 338° |
| 2026-04-29 07:33 | 41.67364 | 10.96508 | 38001 ft | 454 kts | 338° |
| 2026-04-29 07:34 | 41.73242 | 10.93402 | 38001 ft | 454 kts | 338° |
| 2026-04-29 07:34 | 41.79111 | 10.90293 | 38001 ft | 454 kts | 338° |
| 2026-04-29 07:35 | 41.82071 | 10.88723 | 37559 ft | 460 kts | 338° |
| 2026-04-29 07:35 | 41.85052 | 10.87140 | 37058 ft | 458 kts | 338° |
| 2026-04-29 07:35 | 41.88019 | 10.85564 | 36473 ft | 458 kts | 338° |
| 2026-04-29 07:35 | 41.90976 | 10.83991 | 35886 ft | 457 kts | 338° |
| 2026-04-29 07:36 | 41.93899 | 10.82434 | 35238 ft | 458 kts | 338° |
| 2026-04-29 07:36 | 41.96907 | 10.80831 | 34575 ft | 459 kts | 338° |
| 2026-04-29 07:36 | 41.99836 | 10.79268 | 33904 ft | 460 kts | 338° |
| 2026-04-29 07:36 | 42.02816 | 10.77676 | 33210 ft | 461 kts | 338° |
| 2026-04-29 07:37 | 42.05796 | 10.76083 | 32498 ft | 462 kts | 338° |
| 2026-04-29 07:37 | 42.08787 | 10.74481 | 31757 ft | 463 kts | 338° |
| 2026-04-29 07:37 | 42.11789 | 10.72871 | 30999 ft | 464 kts | 338° |
| 2026-04-29 07:37 | 42.14794 | 10.71257 | 30221 ft | 465 kts | 338° |
| 2026-04-29 07:38 | 42.17803 | 10.69638 | 29415 ft | 467 kts | 338° |
| 2026-04-29 07:38 | 42.20820 | 10.68014 | 28663 ft | 466 kts | 338° |
| 2026-04-29 07:38 | 42.23815 | 10.66400 | 28077 ft | 461 kts | 338° |
| 2026-04-29 07:38 | 42.26777 | 10.64803 | 27460 ft | 457 kts | 338° |
| 2026-04-29 07:39 | 42.29721 | 10.63213 | 26879 ft | 452 kts | 338° |
| 2026-04-29 07:39 | 42.32625 | 10.61644 | 26287 ft | 448 kts | 338° |
| 2026-04-29 07:39 | 42.35506 | 10.60085 | 25697 ft | 444 kts | 338° |
| 2026-04-29 07:39 | 42.38365 | 10.58537 | 25109 ft | 440 kts | 338° |
| 2026-04-29 07:40 | 42.41194 | 10.57003 | 24529 ft | 436 kts | 338° |
| 2026-04-29 07:40 | 42.43994 | 10.55484 | 23947 ft | 432 kts | 338° |
| 2026-04-29 07:40 | 42.46739 | 10.53993 | 23383 ft | 428 kts | 338° |
| 2026-04-29 07:40 | 42.49487 | 10.52499 | 22813 ft | 424 kts | 338° |
| 2026-04-29 07:41 | 42.52035 | 10.51112 | 22287 ft | 421 kts | 338° |
| 2026-04-29 07:41 | 42.54744 | 10.49637 | 21721 ft | 417 kts | 338° |
| 2026-04-29 07:41 | 42.57430 | 10.48172 | 21149 ft | 414 kts | 338° |
| 2026-04-29 07:41 | 42.58626 | 10.47520 | 20908 ft | 412 kts | 338° |
| 2026-04-29 07:42 | 42.58707 | 10.47476 | 20893 ft | 412 kts | 338° |
| 2026-04-29 07:42 | 42.61327 | 10.46045 | 20346 ft | 409 kts | 338° |
| 2026-04-29 07:43 | 42.63988 | 10.44591 | 19789 ft | 405 kts | 338° |
| 2026-04-29 07:43 | 42.66559 | 10.43185 | 19258 ft | 402 kts | 338° |
| 2026-04-29 07:43 | 42.69143 | 10.41771 | 18703 ft | 399 kts | 338° |
| 2026-04-29 07:43 | 42.71713 | 10.40376 | 18170 ft | 395 kts | 339° |
| 2026-04-29 07:44 | 42.74346 | 10.39367 | 17629 ft | 393 kts | 350° |
| 2026-04-29 07:44 | 42.77050 | 10.38917 | 17119 ft | 389 kts | 354° |
| 2026-04-29 07:44 | 42.79735 | 10.38577 | 16591 ft | 386 kts | 354° |
| 2026-04-29 07:44 | 42.82408 | 10.38253 | 16073 ft | 383 kts | 354° |
| 2026-04-29 07:45 | 42.85056 | 10.37925 | 15556 ft | 381 kts | 354° |
| 2026-04-29 07:45 | 42.87680 | 10.37585 | 15050 ft | 377 kts | 354° |
| 2026-04-29 07:45 | 42.90286 | 10.37238 | 14543 ft | 374 kts | 354° |
| 2026-04-29 07:45 | 42.92867 | 10.36888 | 14044 ft | 371 kts | 354° |
| 2026-04-29 07:46 | 42.95433 | 10.36536 | 13545 ft | 368 kts | 354° |
| 2026-04-29 07:46 | 42.97942 | 10.36190 | 13060 ft | 366 kts | 354° |
| 2026-04-29 07:46 | 43.00463 | 10.35842 | 12572 ft | 363 kts | 354° |
| 2026-04-29 07:46 | 43.02969 | 10.35496 | 12081 ft | 360 kts | 354° |
| 2026-04-29 07:47 | 43.05446 | 10.35154 | 11729 ft | 353 kts | 354° |
| 2026-04-29 07:47 | 43.07850 | 10.34821 | 11584 ft | 341 kts | 354° |
| 2026-04-29 07:47 | 43.10175 | 10.34500 | 11429 ft | 330 kts | 354° |
| 2026-04-29 07:47 | 43.12429 | 10.34188 | 11287 ft | 320 kts | 354° |
| 2026-04-29 07:48 | 43.14606 | 10.33855 | 11157 ft | 310 kts | 348° |
| 2026-04-29 07:48 | 43.16544 | 10.32813 | 11028 ft | 292 kts | 328° |
| 2026-04-29 07:48 | 43.18213 | 10.31362 | 10902 ft | 276 kts | 326° |
| 2026-04-29 07:48 | 43.19782 | 10.29962 | 10779 ft | 262 kts | 326° |
| 2026-04-29 07:49 | 43.21295 | 10.28618 | 10459 ft | 257 kts | 326° |
| 2026-04-29 07:49 | 43.22804 | 10.27289 | 10046 ft | 257 kts | 327° |
| 2026-04-29 07:49 | 43.24289 | 10.25991 | 9647 ft | 256 kts | 327° |
| 2026-04-29 07:49 | 43.25787 | 10.24688 | 9255 ft | 254 kts | 327° |
| 2026-04-29 07:50 | 43.27282 | 10.23392 | 8813 ft | 255 kts | 327° |
| 2026-04-29 07:50 | 43.28784 | 10.22093 | 8373 ft | 255 kts | 327° |
| 2026-04-29 07:50 | 43.30290 | 10.20791 | 7928 ft | 256 kts | 327° |
| 2026-04-29 07:50 | 43.31798 | 10.19489 | 7483 ft | 256 kts | 327° |
| 2026-04-29 07:51 | 43.33311 | 10.18183 | 7036 ft | 256 kts | 327° |
| 2026-04-29 07:51 | 43.34820 | 10.16879 | 6590 ft | 257 kts | 327° |
| 2026-04-29 07:51 | 43.36285 | 10.15613 | 6157 ft | 257 kts | 327° |
| 2026-04-29 07:51 | 43.37798 | 10.14305 | 5709 ft | 257 kts | 327° |
| 2026-04-29 07:52 | 43.39317 | 10.13013 | 5258 ft | 256 kts | 332° |
| 2026-04-29 07:52 | 43.41032 | 10.12427 | 4783 ft | 257 kts | 2° |
| 2026-04-29 07:52 | 43.42722 | 10.13097 | 4429 ft | 252 kts | 29° |
| 2026-04-29 07:52 | 43.44150 | 10.14422 | 4185 ft | 244 kts | 37° |
| 2026-04-29 07:53 | 43.45468 | 10.15813 | 4026 ft | 232 kts | 37° |
| 2026-04-29 07:53 | 43.46708 | 10.17117 | 3988 ft | 215 kts | 37° |
| 2026-04-29 07:53 | 43.47852 | 10.18303 | 3999 ft | 198 kts | 36° |
| 2026-04-29 07:53 | 43.48977 | 10.19398 | 4023 ft | 198 kts | 35° |
| 2026-04-29 07:54 | 43.50092 | 10.20498 | 4007 ft | 196 kts | 36° |
| 2026-04-29 07:54 | 43.51176 | 10.21602 | 3916 ft | 198 kts | 37° |
| 2026-04-29 07:54 | 43.52290 | 10.22752 | 3663 ft | 201 kts | 37° |
| 2026-04-29 07:54 | 43.53399 | 10.23902 | 3399 ft | 198 kts | 37° |
| 2026-04-29 07:55 | 43.54491 | 10.25036 | 3138 ft | 195 kts | 37° |
| 2026-04-29 07:55 | 43.55565 | 10.26150 | 2882 ft | 191 kts | 37° |
| 2026-04-29 07:55 | 43.56608 | 10.27231 | 2624 ft | 183 kts | 37° |
| 2026-04-29 07:55 | 43.57596 | 10.28257 | 2396 ft | 173 kts | 37° |
| 2026-04-29 07:56 | 43.58519 | 10.29214 | 2211 ft | 158 kts | 37° |
| 2026-04-29 07:56 | 43.59369 | 10.30097 | 1991 ft | 152 kts | 37° |
| 2026-04-29 07:56 | 43.60214 | 10.30972 | 1789 ft | 149 kts | 37° |
| 2026-04-29 07:56 | 43.61047 | 10.31848 | 1588 ft | 154 kts | 37° |
| 2026-04-29 07:57 | 43.61903 | 10.32723 | 1371 ft | 152 kts | 37° |
| 2026-04-29 07:57 | 43.62748 | 10.33599 | 1189 ft | 153 kts | 37° |
| 2026-04-29 07:57 | 43.63601 | 10.34473 | 960 ft | 151 kts | 37° |
| 2026-04-29 07:57 | 43.64437 | 10.35345 | 789 ft | 152 kts | 37° |
| 2026-04-29 07:58 | 43.65284 | 10.36223 | 572 ft | 151 kts | 36° |
| 2026-04-29 07:58 | 43.66117 | 10.37090 | 346 ft | 149 kts | 37° |
| 2026-04-29 07:58 | 43.66950 | 10.37944 | 160 ft | 148 kts | 37° |
| 2026-04-29 07:58 | 43.67769 | 10.38798 | 18 ft | 146 kts | 37° |
| 2026-04-29 07:59 | 43.68441 | 10.39493 | 19 ft | 89 kts | 37° |
| 2026-04-29 07:59 | 43.68823 | 10.39886 | 17 ft | 62 kts | 37° |
| 2026-04-29 07:59 | 43.69072 | 10.40144 | 19 ft | 33 kts | 37° |
| 2026-04-29 07:59 | 43.69169 | 10.40245 | 19 ft | 15 kts | 37° |
| 2026-04-29 08:00 | 43.69235 | 10.40305 | 19 ft | 11 kts | 17° |
| 2026-04-29 08:00 | 43.69298 | 10.40259 | 17 ft | 12 kts | 311° |
| 2026-04-29 08:00 | 43.69345 | 10.40179 | 20 ft | 10 kts | 309° |
| 2026-04-29 08:00 | 43.69392 | 10.40108 | 21 ft | 10 kts | 323° |
| 2026-04-29 08:01 | 43.69468 | 10.40088 | 18 ft | 13 kts | 353° |
| 2026-04-29 08:01 | 43.69564 | 10.40070 | 15 ft | 14 kts | 352° |
| 2026-04-29 08:01 | 43.69644 | 10.40054 | 14 ft | 10 kts | 351° |
| 2026-04-29 08:01 | 43.69687 | 10.39991 | 17 ft | 10 kts | 280° |
| 2026-04-29 08:02 | 43.69694 | 10.39929 | 14 ft | 10 kts | 279° |
| 2026-04-29 08:02 | 43.69699 | 10.39838 | 14 ft | 9 kts | 257° |
| 2026-04-29 08:02 | 43.69656 | 10.39791 | -7 ft | 5 kts | 208° |
| 2026-04-29 08:02 | 43.69653 | 10.39770 | -60 ft | 2 kts | 278° |
| 2026-04-29 08:03 | 43.69655 | 10.39748 | 28 ft | 3 kts | 279° |
| 2026-04-29 08:03 | 43.69662 | 10.39716 | 15 ft | 4 kts | 304° |
| 2026-04-29 08:03 | 43.69667 | 10.39710 | 15 ft | 0 kts | 320° |